createdAt,value
2018-05-01T00:02:06.281Z,54.50
2018-05-01T00:04:33.829Z,54.50
2018-05-01T00:07:01.350Z,54.80
2018-05-01T00:09:28.887Z,54.90
2018-05-01T00:11:57.170Z,55.00
2018-05-01T00:14:25.471Z,55.00
2018-05-01T00:16:52.993Z,55.00
2018-05-01T00:19:21.307Z,55.10
2018-05-01T00:21:48.823Z,55.20
2018-05-01T00:24:16.359Z,55.30
2018-05-01T00:26:43.871Z,55.90
2018-05-01T00:29:11.405Z,55.70
2018-05-01T00:31:38.924Z,55.80
2018-05-01T00:34:06.469Z,56.00
2018-05-01T00:36:33.984Z,56.50
2018-05-01T00:39:01.544Z,56.40
2018-05-01T00:41:29.062Z,56.80
2018-05-01T00:43:56.580Z,56.70
2018-05-01T00:46:24.883Z,57.00
2018-05-01T00:48:52.391Z,56.90
2018-05-01T00:51:19.931Z,57.20
2018-05-01T00:53:47.452Z,58.20
2018-05-01T00:56:15.001Z,58.80
2018-05-01T00:58:43.276Z,58.30
2018-05-01T01:01:11.587Z,58.70
2018-05-01T01:03:39.112Z,58.70
2018-05-01T01:06:06.664Z,58.70
2018-05-01T01:08:34.950Z,58.80
2018-05-01T01:11:03.256Z,59.00
2018-05-01T01:13:30.772Z,59.00
2018-05-01T01:15:58.303Z,59.20
2018-05-01T01:18:25.823Z,59.60
2018-05-01T01:20:53.359Z,59.30
2018-05-01T01:23:21.639Z,59.50
2018-05-01T01:25:49.947Z,59.10
2018-05-01T01:28:17.465Z,59.00
2018-05-01T01:30:45.771Z,60.00
2018-05-01T01:33:13.276Z,60.00
2018-05-01T01:35:40.323Z,60.10
2018-05-01T01:38:07.345Z,59.70
2018-05-01T01:40:34.438Z,59.50
2018-05-01T01:43:01.459Z,59.80
2018-05-01T01:45:28.524Z,60.40
2018-05-01T01:47:55.550Z,61.20
2018-05-01T01:50:22.573Z,61.70
2018-05-01T01:52:49.623Z,62.20
2018-05-01T01:55:16.750Z,62.80
2018-05-01T01:57:43.739Z,63.10
2018-05-01T02:00:10.769Z,63.70
2018-05-01T02:02:37.815Z,63.40
2018-05-01T02:05:04.840Z,63.60
2018-05-01T02:07:32.665Z,64.20
2018-05-01T02:10:00.460Z,64.10
2018-05-01T02:12:27.515Z,64.10
2018-05-01T02:14:55.305Z,64.90
2018-05-01T02:17:22.356Z,64.80
2018-05-01T02:19:49.388Z,64.90
2018-05-01T02:22:17.207Z,64.40
2018-05-01T02:24:44.229Z,64.20
2018-05-01T02:27:11.288Z,64.50
2018-05-01T02:29:38.309Z,64.70
2018-05-01T02:32:05.359Z,64.80
2018-05-01T02:34:32.392Z,65.30
2018-05-01T02:37:00.216Z,66.10
2018-05-01T02:39:27.260Z,66.10
2018-05-01T02:41:54.316Z,65.60
2018-05-01T02:44:21.339Z,65.90
2018-05-01T02:46:48.388Z,65.90
2018-05-01T02:49:15.460Z,66.30
2018-05-01T02:51:42.483Z,66.60
2018-05-01T02:54:09.503Z,66.90
2018-05-01T02:56:36.576Z,67.30
2018-05-01T02:59:03.595Z,68.10
2018-05-01T03:01:30.978Z,68.40
2018-05-01T03:03:58.014Z,69.20
2018-05-01T03:06:25.081Z,69.40
2018-05-01T03:08:52.119Z,69.60
2018-05-01T03:11:19.193Z,69.20
2018-05-01T03:13:46.234Z,69.90
2018-05-01T03:16:13.264Z,70.10
2018-05-01T03:18:40.336Z,70.40
2018-05-01T03:21:08.148Z,70.80
2018-05-01T03:23:35.980Z,70.30
2018-05-01T03:26:03.016Z,70.30
2018-05-01T03:28:30.087Z,70.00
2018-05-01T03:30:57.120Z,70.50
2018-05-01T03:33:24.949Z,71.10
2018-05-01T03:35:51.997Z,71.10
2018-05-01T03:38:19.084Z,71.00
2018-05-01T03:40:46.133Z,70.60
2018-05-01T03:43:13.215Z,71.10
2018-05-01T03:45:41.032Z,71.60
2018-05-01T03:48:08.147Z,71.60
2018-05-01T03:50:35.957Z,71.90
2018-05-01T03:53:03.012Z,71.80
2018-05-01T03:55:30.052Z,71.10
2018-05-01T03:57:57.149Z,71.90
2018-05-01T04:00:24.975Z,71.70
2018-05-01T04:02:52.091Z,71.70
2018-05-01T04:05:19.125Z,71.70
2018-05-01T04:07:46.184Z,72.30
2018-05-01T04:10:13.236Z,72.50
2018-05-01T04:12:40.304Z,72.70
2018-05-01T04:15:07.336Z,73.10
2018-05-01T04:17:34.432Z,73.50
2018-05-01T04:20:01.475Z,73.80
2018-05-01T04:22:28.548Z,74.10
2018-05-01T04:24:55.598Z,74.40
2018-05-01T04:27:22.673Z,75.30
2018-05-01T04:29:49.699Z,75.50
2018-05-01T04:32:17.539Z,75.20
2018-05-01T04:34:44.579Z,75.10
2018-05-01T04:37:11.652Z,75.60
2018-05-01T04:39:38.690Z,76.10
2018-05-01T04:42:05.764Z,76.20
2018-05-01T04:44:33.596Z,75.40
2018-05-01T04:47:00.634Z,75.30
2018-05-01T04:49:27.712Z,75.50
2018-05-01T04:51:54.740Z,75.30
2018-05-01T04:54:21.823Z,75.00
2018-05-01T04:56:49.648Z,75.30
2018-05-01T04:59:16.732Z,75.30
2018-05-01T05:01:43.801Z,75.00
2018-05-01T05:04:11.623Z,74.10
2018-05-01T05:06:38.668Z,74.10
2018-05-01T05:09:05.741Z,74.20
2018-05-01T05:11:32.792Z,74.50
2018-05-01T05:13:59.859Z,73.80
2018-05-01T05:16:26.891Z,74.30
2018-05-01T05:18:54.721Z,74.00
2018-05-01T05:21:21.781Z,73.80
2018-05-01T05:23:49.235Z,73.80
2018-05-01T05:26:16.276Z,73.90
2018-05-01T05:28:43.341Z,73.90
2018-05-01T05:31:10.376Z,74.10
2018-05-01T05:33:37.457Z,74.10
2018-05-01T05:36:04.504Z,73.80
2018-05-01T05:38:31.566Z,74.00
2018-05-01T05:40:59.378Z,74.10
2018-05-01T05:43:26.445Z,74.10
2018-05-01T05:45:53.484Z,74.40
2018-05-01T05:48:20.558Z,74.30
2018-05-01T05:50:47.603Z,74.60
2018-05-01T05:53:14.673Z,74.70
2018-05-01T05:55:42.495Z,74.80
2018-05-01T05:58:09.552Z,74.70
2018-05-01T06:00:36.602Z,75.00
2018-05-01T06:03:03.678Z,75.00
2018-05-01T06:05:30.742Z,74.90
2018-05-01T06:07:57.821Z,75.20
2018-05-01T06:10:24.901Z,75.00
2018-05-01T06:12:51.937Z,75.10
2018-05-01T06:15:19.013Z,74.90
2018-05-01T06:17:46.056Z,75.00
2018-05-01T06:20:13.144Z,75.20
2018-05-01T06:22:40.188Z,75.50
2018-05-01T06:25:07.288Z,76.00
2018-05-01T06:27:34.340Z,76.80
2018-05-01T06:30:01.431Z,77.50
2018-05-01T06:32:29.243Z,78.90
2018-05-01T06:34:56.327Z,78.80
2018-05-01T06:37:23.419Z,80.10
2018-05-01T06:39:50.449Z,80.10
2018-05-01T06:42:18.256Z,80.20
2018-05-01T06:44:45.365Z,80.20
2018-05-01T06:47:12.417Z,79.40
2018-05-01T06:49:39.485Z,80.10
2018-05-01T06:52:06.523Z,79.80
2018-05-01T06:54:33.584Z,79.80
2018-05-01T06:57:00.625Z,79.40
2018-05-01T06:59:27.687Z,79.90
2018-05-01T07:01:54.720Z,80.00
2018-05-01T07:04:21.803Z,80.50
2018-05-01T07:06:48.849Z,80.60
2018-05-01T07:09:15.910Z,80.90
2018-05-01T07:11:42.945Z,81.30
2018-05-01T07:14:10.022Z,80.60
2018-05-01T07:16:37.082Z,80.80
2018-05-01T07:19:04.917Z,81.10
2018-05-01T07:21:31.949Z,81.10
2018-05-01T07:23:59.021Z,80.80
2018-05-01T07:26:26.058Z,81.30
2018-05-01T07:28:53.133Z,80.90
2018-05-01T07:31:20.176Z,80.80
2018-05-01T07:33:47.212Z,81.50
2018-05-01T07:36:14.284Z,80.50
2018-05-01T07:38:42.095Z,81.10
2018-05-01T07:41:09.162Z,80.70
2018-05-01T07:43:36.205Z,80.20
2018-05-01T07:46:03.272Z,79.60
2018-05-01T07:48:30.315Z,79.50
2018-05-01T07:50:57.450Z,79.30
2018-05-01T07:53:25.213Z,79.60
2018-05-01T07:55:52.277Z,79.50
2018-05-01T07:58:19.323Z,79.00
2018-05-01T08:00:46.381Z,79.30
2018-05-01T08:03:13.413Z,78.60
2018-05-01T08:05:40.481Z,78.40
2018-05-01T08:08:07.564Z,78.50
2018-05-01T08:10:35.404Z,77.00
2018-05-01T08:13:02.437Z,77.00
2018-05-01T08:15:29.518Z,78.20
2018-05-01T08:17:56.552Z,78.20
2018-05-01T08:20:23.616Z,77.90
2018-05-01T08:22:50.669Z,78.20
2018-05-01T08:25:18.596Z,77.50
2018-05-01T08:27:45.630Z,77.50
2018-05-01T08:30:12.693Z,77.00
2018-05-01T08:32:39.734Z,77.40
2018-05-01T08:35:06.791Z,76.90
2018-05-01T08:37:33.838Z,77.30
2018-05-01T08:40:00.913Z,77.50
2018-05-01T08:42:27.963Z,76.80
2018-05-01T08:44:55.029Z,77.10
2018-05-01T08:47:22.070Z,76.80
2018-05-01T08:49:49.125Z,76.90
2018-05-01T08:52:16.157Z,76.90
2018-05-01T08:54:43.253Z,76.40
2018-05-01T08:57:10.289Z,76.30
2018-05-01T08:59:37.329Z,76.30
2018-05-01T09:02:05.158Z,76.40
2018-05-01T09:04:32.189Z,76.40
2018-05-01T09:06:59.274Z,75.50
2018-05-01T09:09:26.310Z,76.20
2018-05-01T09:11:54.155Z,76.10
2018-05-01T09:14:21.197Z,75.50
2018-05-01T09:16:48.256Z,74.90
2018-05-01T09:19:16.054Z,74.20
2018-05-01T09:21:43.882Z,73.90
2018-05-01T09:24:10.929Z,73.60
2018-05-01T09:26:37.988Z,73.90
2018-05-01T09:29:05.028Z,74.00
2018-05-01T09:31:34.232Z,72.90
2018-05-01T09:34:01.272Z,72.70
2018-05-01T09:36:28.337Z,72.60
2018-05-01T09:38:55.394Z,72.60
2018-05-01T09:41:22.452Z,72.70
2018-05-01T09:43:49.493Z,72.90
2018-05-01T09:46:16.550Z,72.00
2018-05-01T09:48:43.585Z,72.90
2018-05-01T09:51:10.644Z,71.70
2018-05-01T09:53:38.177Z,71.30
2018-05-01T09:56:05.745Z,71.00
2018-05-01T09:58:33.270Z,71.40
2018-05-01T10:01:00.818Z,70.40
2018-05-01T10:03:28.349Z,70.70
2018-05-01T10:05:55.901Z,70.90
2018-05-01T10:08:23.416Z,70.10
2018-05-01T10:10:50.965Z,70.80
2018-05-01T10:13:18.497Z,70.70
2018-05-01T10:15:46.056Z,69.00
2018-05-01T10:18:13.585Z,69.30
2018-05-01T10:20:41.161Z,68.50
2018-05-01T10:23:08.680Z,68.40
2018-05-01T10:25:36.201Z,67.70
2018-05-01T10:28:03.760Z,67.60
2018-05-01T10:30:32.052Z,67.00
2018-05-01T10:32:59.605Z,66.90
2018-05-01T10:35:27.899Z,66.20
2018-05-01T10:37:55.453Z,66.00
2018-05-01T10:40:22.972Z,66.60
2018-05-01T10:42:50.517Z,65.70
2018-05-01T10:45:18.166Z,66.00
2018-05-01T10:47:45.719Z,65.30
2018-05-01T10:50:13.242Z,66.10
2018-05-01T10:52:40.791Z,66.60
2018-05-01T10:55:08.314Z,67.60
2018-05-01T10:57:35.865Z,66.70
2018-05-01T11:00:03.394Z,67.70
2018-05-01T11:02:30.949Z,67.90
2018-05-01T11:04:58.469Z,66.60
2018-05-01T11:07:26.074Z,65.60
2018-05-01T11:09:53.599Z,66.50
2018-05-01T11:12:21.149Z,66.00
2018-05-01T11:14:48.671Z,65.70
2018-05-01T11:17:16.243Z,66.30
2018-05-01T11:19:43.765Z,67.00
2018-05-01T11:22:12.277Z,69.50
2018-05-01T11:24:40.425Z,69.40
2018-05-01T11:27:08.017Z,70.40
2018-05-01T11:29:35.713Z,69.10
2018-05-01T11:32:04.222Z,67.90
2018-05-01T11:34:31.849Z,67.50
2018-05-01T11:36:59.409Z,68.00
2018-05-01T11:39:26.939Z,65.80
2018-05-01T11:41:54.552Z,65.00
2018-05-01T11:44:22.081Z,62.30
2018-05-01T11:46:49.636Z,64.10
2018-05-01T11:49:17.161Z,64.10
2018-05-01T11:51:45.438Z,64.00
2018-05-01T11:54:13.034Z,61.60
2018-05-01T11:56:40.562Z,59.60
2018-05-01T11:59:08.113Z,59.40
2018-05-01T12:01:35.633Z,58.80
2018-05-01T12:04:04.057Z,59.30
2018-05-01T12:06:34.482Z,59.00
2018-05-01T12:09:02.226Z,58.90
2018-05-01T12:11:30.589Z,58.50
2018-05-01T12:13:58.967Z,58.70
2018-05-01T12:16:26.576Z,58.60
2018-05-01T12:18:54.169Z,58.90
2018-05-01T12:21:21.705Z,57.40
2018-05-01T12:23:49.261Z,57.80
2018-05-01T12:26:16.786Z,57.00
2018-05-01T12:28:44.346Z,57.60
2018-05-01T12:31:11.875Z,56.70
2018-05-01T12:33:39.442Z,56.20
2018-05-01T12:36:06.969Z,56.30
2018-05-01T12:38:34.521Z,56.40
2018-05-01T12:41:02.049Z,56.60
2018-05-01T12:43:29.633Z,55.90
2018-05-01T12:45:57.157Z,54.30
2018-05-01T12:48:24.769Z,54.30
2018-05-01T12:50:52.262Z,53.90
2018-05-01T12:53:19.820Z,53.10
2018-05-01T12:55:47.342Z,53.40
2018-05-01T12:58:14.889Z,55.50
2018-05-01T13:00:42.413Z,54.80
2018-05-01T13:03:09.965Z,54.70
2018-05-01T13:05:37.489Z,53.90
2018-05-01T13:11:23.285Z,54.00
2018-05-01T13:13:52.432Z,53.50
2018-05-01T13:16:22.289Z,54.00
2018-05-01T13:28:49.245Z,51.50
2018-05-01T13:38:46.759Z,49.30
2018-05-01T13:41:15.875Z,49.60
2018-05-01T13:46:14.504Z,50.80
2018-05-01T13:56:12.013Z,47.80
2018-05-01T13:58:41.905Z,48.00
2018-05-01T14:03:40.517Z,48.30
2018-05-01T14:06:09.650Z,47.50
2018-05-01T14:08:38.782Z,47.80
2018-05-01T14:11:07.912Z,46.10
2018-05-01T14:13:37.789Z,45.70
2018-05-01T14:16:06.934Z,45.00
2018-05-01T14:18:36.861Z,46.10
2018-05-01T14:23:36.305Z,45.60
2018-05-01T14:26:06.325Z,44.70
2018-05-01T14:31:04.125Z,43.70
2018-05-01T14:33:33.269Z,41.10
2018-05-01T14:36:02.377Z,40.50
2018-05-01T14:41:01.705Z,41.00
2018-05-01T14:43:31.569Z,41.40
2018-05-01T14:46:00.725Z,41.10
2018-05-01T14:48:30.573Z,42.00
2018-05-01T15:03:26.921Z,41.80
2018-05-01T15:05:56.801Z,41.90
2018-05-01T15:08:25.907Z,41.40
2018-05-01T15:13:24.462Z,40.90
2018-05-01T15:15:54.333Z,39.90
2018-05-01T15:18:24.231Z,41.00
2018-05-01T15:25:51.552Z,41.60
2018-05-01T15:33:20.325Z,39.10
2018-05-01T15:35:50.209Z,39.60
2018-05-01T15:38:20.109Z,38.50
2018-05-01T15:43:19.441Z,38.70
2018-05-01T16:08:14.309Z,36.20
2018-05-01T16:10:44.229Z,34.60
2018-05-01T16:13:14.093Z,35.40
2018-05-01T16:15:42.535Z,35.40
2018-05-01T16:18:11.681Z,35.00
2018-05-01T16:23:10.996Z,36.40
2018-05-01T16:25:39.370Z,36.30
2018-05-01T16:28:08.489Z,34.10
2018-05-01T16:30:38.413Z,34.20
2018-05-01T16:38:06.433Z,34.20
2018-05-01T16:43:05.013Z,34.30
2018-05-01T16:45:34.940Z,35.10
2018-05-01T16:48:04.060Z,35.60
2018-05-01T16:50:33.961Z,35.00
2018-05-01T16:53:03.821Z,36.10
2018-05-01T16:55:33.011Z,36.40
2018-05-01T16:58:02.896Z,36.00
2018-05-01T17:32:54.905Z,40.70
2018-05-01T17:40:22.875Z,41.70
2018-05-01T17:42:52.005Z,41.10
2018-05-01T17:47:51.353Z,39.60
2018-05-01T17:55:20.165Z,37.00
2018-05-01T18:05:17.747Z,39.70
